Time;durP1;ratioP1;P1;durP2;ratioP2;P2;SDS_P1;SDS_P2;PMS_P1;PMS_P2;Temp;Humidity;BMP_temperature;BMP_pressure;BME280_temperature;BME280_humidity;BME280_pressure;Samples;Min_cycle;Max_cycle;Signal;HPM_P1;HPM_P2
2022/11/19 00:01:31;;;;;;;26.27;16.63;;;;;;;-0.82;77.53;98111.61;2269256;78;20872;-81
2022/11/19 00:04:32;;;;;;;29.73;17.30;;;;;;;-0.98;78.14;98104.90;2269238;78;20943;-80
2022/11/19 00:07:32;;;;;;;25.83;15.83;;;;;;;-1.09;78.93;98111.22;2269295;78;20939;-79
2022/11/19 00:10:32;;;;;;;25.70;15.83;;;;;;;-1.18;78.98;98109.52;2269421;78;20928;-80
2022/11/19 00:13:33;;;;;;;26.10;16.23;;;;;;;-1.24;79.30;98115.64;2269285;78;20904;-81
2022/11/19 00:16:33;;;;;;;26.27;17.17;;;;;;;-1.32;80.25;98120.41;2269252;78;20893;-80
2022/11/19 00:19:34;;;;;;;28.13;17.27;;;;;;;-1.41;80.69;98128.95;2269291;78;20896;-80
2022/11/19 00:22:34;;;;;;;29.63;17.83;;;;;;;-1.49;81.49;98124.75;2269012;78;20900;-81
2022/11/19 00:25:34;;;;;;;28.83;16.57;;;;;;;-1.57;81.96;98133.75;2269243;78;20928;-81
2022/11/19 00:28:35;;;;;;;23.00;15.90;;;;;;;-1.67;82.09;98141.79;2269125;78;20951;-80
2022/11/19 00:31:36;;;;;;;19.77;14.93;;;;;;;-1.80;82.34;98142.84;2269193;78;21299;-80
2022/11/19 00:34:36;;;;;;;22.30;16.07;;;;;;;-1.88;81.92;98147.12;2269143;78;20904;-80
2022/11/19 00:37:36;;;;;;;23.70;15.50;;;;;;;-1.92;81.89;98146.97;2268866;78;20975;-80
2022/11/19 00:40:37;;;;;;;20.10;14.70;;;;;;;-1.96;81.82;98151.45;2269066;78;20873;-81
2022/11/19 00:43:46;;;;;;;22.20;14.90;;;;;;;-2.02;81.81;98162.66;2269299;78;20924;-80
2022/11/19 00:46:46;;;;;;;23.73;14.83;;;;;;;-2.15;81.33;98158.14;2268688;78;20907;-80
2022/11/19 00:49:47;;;;;;;25.80;15.07;;;;;;;-2.20;81.98;98156.63;2269260;78;20916;-80
2022/11/19 00:52:47;;;;;;;23.87;15.63;;;;;;;-2.21;82.08;98156.16;2269245;78;20953;-80
2022/11/19 00:55:47;;;;;;;24.10;16.00;;;;;;;-2.22;82.20;98157.36;2269085;78;21268;-81
2022/11/19 00:58:48;;;;;;;23.93;14.50;;;;;;;-2.23;82.08;98161.99;2268948;78;20904;-81
2022/11/19 01:01:48;;;;;;;22.63;14.40;;;;;;;-2.22;82.31;98159.52;2269260;78;20888;-80
2022/11/19 01:04:49;;;;;;;21.50;14.37;;;;;;;-2.30;82.14;98164.64;2269080;78;21259;-81
2022/11/19 01:07:49;;;;;;;17.40;14.07;;;;;;;-2.40;82.17;98166.25;2269065;78;20955;-82
2022/11/19 01:10:50;;;;;;;21.40;13.83;;;;;;;-2.47;81.81;98177.83;2269458;78;20903;-80
2022/11/19 01:13:50;;;;;;;25.17;14.90;;;;;;;-2.52;81.83;98179.67;2269053;78;20892;-80
2022/11/19 01:16:50;;;;;;;27.47;17.60;;;;;;;-2.55;82.21;98180.80;2268803;78;21312;-80
2022/11/19 01:19:51;;;;;;;24.40;16.20;;;;;;;-2.57;82.08;98177.77;2269002;78;20896;-81
2022/11/19 01:22:51;;;;;;;26.10;17.10;;;;;;;-2.62;82.11;98179.16;2268965;78;20869;-80
2022/11/19 01:25:52;;;;;;;25.50;17.00;;;;;;;-2.70;81.83;98171.50;2269109;78;20892;-79
2022/11/19 01:28:52;;;;;;;29.67;18.73;;;;;;;-2.74;82.10;98175.97;2269022;78;20983;-79
2022/11/19 01:31:52;;;;;;;28.00;15.50;;;;;;;-2.80;82.56;98174.37;2268934;78;20912;-79
2022/11/19 01:34:53;;;;;;;25.30;15.50;;;;;;;-2.88;82.78;98169.25;2269025;78;20939;-82
2022/11/19 01:37:53;;;;;;;19.30;13.23;;;;;;;-2.95;82.72;98171.00;2270371;78;20979;-80
2022/11/19 01:40:54;;;;;;;24.47;14.57;;;;;;;-3.03;82.78;98179.53;2273404;78;20896;-79
2022/11/19 01:43:55;;;;;;;22.33;14.93;;;;;;;-3.13;82.83;98176.00;2273485;78;21429;-81
2022/11/19 01:46:55;;;;;;;24.00;15.07;;;;;;;-3.18;83.47;98184.20;2273277;78;20939;-80
2022/11/19 01:49:55;;;;;;;22.03;14.27;;;;;;;-3.25;83.14;98178.77;2272982;78;20920;-81
2022/11/19 01:52:55;;;;;;;27.03;16.27;;;;;;;-3.28;83.09;98178.60;2273245;78;21070;-81
2022/11/19 01:55:56;;;;;;;23.83;15.40;;;;;;;-3.30;83.30;98181.47;2273478;78;20931;-79
2022/11/19 01:58:56;;;;;;;25.43;15.80;;;;;;;-3.30;83.30;98184.02;2273311;78;20934;-81
2022/11/19 02:01:57;;;;;;;31.60;18.17;;;;;;;-3.28;83.21;98182.43;2273294;78;20888;-80
2022/11/19 02:04:57;;;;;;;26.80;16.83;;;;;;;-3.31;83.41;98181.38;2272941;78;20927;-81
2022/11/19 02:07:57;;;;;;;26.33;17.10;;;;;;;-3.35;83.38;98184.16;2273441;78;20990;-82
2022/11/19 02:10:58;;;;;;;33.73;18.17;;;;;;;-3.43;83.11;98186.69;2273821;78;20888;-81
2022/11/19 02:14:01;;;;;;;29.40;16.80;;;;;;;-3.50;83.08;98190.94;2273932;78;21268;-80
2022/11/19 02:17:02;;;;;;;24.97;15.63;;;;;;;-3.53;83.28;98194.59;2273701;78;20935;-80
2022/11/19 02:20:02;;;;;;;22.50;15.80;;;;;;;-3.57;83.34;98193.94;2273496;78;20896;-82
2022/11/19 02:23:02;;;;;;;20.77;14.23;;;;;;;-3.58;83.39;98194.73;2273194;78;21300;-81
2022/11/19 02:26:02;;;;;;;24.10;14.23;;;;;;;-3.63;83.52;98189.77;2273292;78;20872;-81
2022/11/19 02:29:03;;;;;;;28.03;16.57;;;;;;;-3.68;83.30;98189.91;2273153;78;20923;-82
2022/11/19 02:32:03;;;;;;;28.70;15.13;;;;;;;-3.72;83.13;98194.36;2273234;78;20919;-81
2022/11/19 02:35:04;;;;;;;24.47;15.83;;;;;;;-3.75;83.01;98192.91;2272968;78;20920;-80
2022/11/19 02:38:04;;;;;;;21.90;14.73;;;;;;;-3.81;82.78;98195.11;2273352;78;20978;-80
2022/11/19 02:41:32;;;;;;;22.93;15.10;;;;;;;-3.87;82.92;98207.11;2272882;78;20908;-81
2022/11/19 02:47:24;;;;;;;49.57;16.53;;;;;;;-3.92;82.85;98197.92;2273313;78;20975;-81
2022/11/19 02:50:24;;;;;;;28.90;13.40;;;;;;;-3.93;82.96;98207.64;2273372;78;20974;-77
2022/11/19 02:53:25;;;;;;;17.43;12.87;;;;;;;-3.91;83.01;98214.10;2273221;78;21244;-82
2022/11/19 02:56:25;;;;;;;18.80;12.20;;;;;;;-3.89;83.01;98217.63;2273140;78;20900;-78
2022/11/19 03:06:03;;;;;;;22.87;14.07;;;;;;;-3.90;83.36;98235.86;2273178;78;20999;-78
2022/11/19 03:09:03;;;;;;;23.60;15.10;;;;;;;-3.89;82.25;98244.00;2273427;78;20995;-77
2022/11/19 03:12:04;;;;;;;25.13;13.67;;;;;;;-3.91;82.25;98248.13;2273520;78;20868;-80
2022/11/19 03:18:23;;;;;;;21.40;12.80;;;;;;;-3.94;82.23;98263.64;2273205;78;20917;-79
2022/11/19 03:21:23;;;;;;;23.37;14.27;;;;;;;-3.90;82.74;98268.13;2273444;78;21085;-81
2022/11/19 03:24:23;;;;;;;26.83;14.73;;;;;;;-3.83;82.42;98271.92;2273276;78;21259;-81
2022/11/19 03:27:24;;;;;;;32.83;16.13;;;;;;;-3.78;82.76;98273.06;2273176;78;20923;-78
2022/11/19 03:30:24;;;;;;;22.00;14.03;;;;;;;-3.73;82.87;98275.09;2273292;78;20916;-80
2022/11/19 03:33:25;;;;;;;25.23;14.93;;;;;;;-3.67;82.34;98286.05;2273397;78;20896;-79
2022/11/19 03:36:25;;;;;;;21.80;13.70;;;;;;;-3.63;82.36;98284.16;2273583;78;20912;-80
2022/11/19 03:39:26;;;;;;;24.20;14.30;;;;;;;-3.60;82.20;98283.05;2270543;78;20982;-79
2022/11/19 03:42:26;;;;;;;24.83;14.30;;;;;;;-3.59;81.97;98280.98;2269468;78;20924;-78
2022/11/19 03:45:27;;;;;;;26.87;14.80;;;;;;;-3.62;81.85;98289.73;2269072;78;20896;-81
2022/11/19 03:48:27;;;;;;;29.87;14.87;;;;;;;-3.62;81.92;98305.92;2269025;78;20950;-80
2022/11/19 03:51:27;;;;;;;25.60;14.37;;;;;;;-3.62;81.96;98308.87;2269328;78;20950;-81
2022/11/19 03:54:30;;;;;;;24.30;14.37;;;;;;;-3.59;82.10;98300.13;2269675;78;20924;-78
2022/11/19 03:57:33;;;;;;;23.57;13.32;;;;;;;-3.55;81.92;98300.78;2237227;78;20865;-80
2022/11/19 04:00:35;;;;;;;24.33;13.40;;;;;;;-3.53;81.80;98297.52;2269385;78;20912;-79
2022/11/19 04:03:35;;;;;;;21.53;12.67;;;;;;;-3.54;81.44;98293.61;2268944;78;20950;-81
2022/11/19 04:06:36;;;;;;;22.00;14.30;;;;;;;-3.55;81.67;98299.50;2269137;78;20911;-80
2022/11/19 04:09:36;;;;;;;22.20;14.67;;;;;;;-3.49;82.09;98304.95;2268576;78;20998;-80
2022/11/19 04:12:36;;;;;;;24.73;14.17;;;;;;;-3.49;82.26;98307.51;2268777;78;20948;-80
2022/11/19 04:15:37;;;;;;;47.73;14.13;;;;;;;-3.55;81.90;98309.31;2268945;78;20935;-81
2022/11/19 04:18:37;;;;;;;21.23;13.33;;;;;;;-3.55;81.84;98310.98;2269428;78;20927;-80
2022/11/19 04:21:38;;;;;;;23.23;14.30;;;;;;;-3.56;81.72;98317.76;2268936;78;21298;-80
2022/11/19 04:24:38;;;;;;;56.03;16.47;;;;;;;-3.53;81.73;98324.70;2269022;78;20916;-80
2022/11/19 04:27:38;;;;;;;26.07;14.63;;;;;;;-3.54;81.76;98323.83;2269115;78;20991;-80
2022/11/19 04:30:39;;;;;;;30.40;19.30;;;;;;;-3.53;81.96;98336.19;2269287;78;20955;-80
2022/11/19 04:33:39;;;;;;;30.13;18.27;;;;;;;-3.52;82.15;98331.58;2268357;78;20927;-81
2022/11/19 04:36:41;;;;;;;29.50;16.43;;;;;;;-3.53;82.17;98325.98;2269038;78;20923;-81
2022/11/19 04:39:40;;;;;;;23.30;13.73;;;;;;;-3.57;82.28;98325.33;2271658;78;20971;-81
2022/11/19 04:42:42;;;;;;;23.13;14.93;;;;;;;-3.60;81.82;98322.59;2273709;78;20919;-81
2022/11/19 04:45:42;;;;;;;8.67;4.37;;;;;;;-3.67;81.67;98329.02;2272829;78;20911;-82
2022/11/19 04:48:42;;;;;;;30.87;19.33;;;;;;;-2.21;100.00;98326.58;2273246;78;20943;-81
2022/11/19 04:51:43;;;;;;;23.23;15.23;;;;;;;0.75;100.00;98318.13;2273440;78;20915;-80
2022/11/19 04:54:43;;;;;;;30.47;14.30;;;;;;;-0.27;84.92;98326.46;2272761;78;20907;-80
2022/11/19 04:57:44;;;;;;;22.33;13.87;;;;;;;-1.08;80.79;98338.38;2272489;78;20927;-81
2022/11/19 05:00:44;;;;;;;33.03;16.63;;;;;;;-1.66;79.84;98352.10;2272426;78;20940;-83
2022/11/19 05:03:44;;;;;;;43.90;22.80;;;;;;;-1.69;99.41;98345.55;2272473;78;20880;-80
2022/11/19 05:06:45;;;;;;;33.40;18.33;;;;;;;-1.10;84.07;98354.07;2271714;78;20950;-81
2022/11/19 05:09:45;;;;;;;26.90;17.57;;;;;;;-1.60;80.71;98361.38;2271562;78;21646;-81
2022/11/19 05:12:46;;;;;;;26.57;16.57;;;;;;;-2.00;79.88;98364.78;2271399;78;20931;-80
2022/11/19 05:15:46;;;;;;;28.60;16.50;;;;;;;-2.29;79.89;98365.80;2271131;78;20955;-81
2022/11/19 05:18:47;;;;;;;31.80;16.57;;;;;;;-2.53;79.67;98365.73;2271073;78;20892;-81
2022/11/19 05:21:47;;;;;;;27.50;16.23;;;;;;;-2.75;79.74;98359.81;2271456;78;20915;-81
2022/11/19 05:24:47;;;;;;;26.67;16.43;;;;;;;-2.92;80.06;98367.41;2271973;78;21578;-81
2022/11/19 05:27:48;;;;;;;29.83;17.90;;;;;;;-3.07;80.10;98373.33;2272065;78;20915;-81
2022/11/19 05:30:48;;;;;;;32.13;18.53;;;;;;;-3.23;80.75;98369.89;2272044;78;20899;-80
2022/11/19 05:33:49;;;;;;;39.43;21.03;;;;;;;-3.36;81.17;98378.91;2272172;78;20935;-83
2022/11/19 05:36:49;;;;;;;34.83;19.77;;;;;;;-3.46;81.65;98376.62;2273399;78;20908;-79
2022/11/19 05:39:49;;;;;;;30.90;19.13;;;;;;;-3.55;81.91;98381.14;2269741;78;20982;-81
2022/11/19 05:42:50;;;;;;;35.00;19.90;;;;;;;-3.61;81.92;98390.59;2268634;78;20904;-79
2022/11/19 05:45:50;;;;;;;33.77;18.57;;;;;;;-3.65;82.22;98403.95;2268521;78;20959;-82
2022/11/19 05:48:51;;;;;;;34.37;19.07;;;;;;;-3.64;82.18;98411.21;2268259;78;21283;-83
2022/11/19 05:51:51;;;;;;;32.70;18.70;;;;;;;-3.63;81.52;98410.03;2268430;78;20924;-80
2022/11/19 05:54:51;;;;;;;35.30;16.67;;;;;;;-3.63;81.45;98409.14;2269485;78;20924;-85
2022/11/19 05:57:52;;;;;;;32.33;20.03;;;;;;;-1.49;100.00;98414.00;2268568;78;21423;-78
2022/11/19 06:00:52;;;;;;;95.90;22.87;;;;;;;2.28;91.48;98403.55;2268669;78;20915;-81
2022/11/19 06:03:53;;;;;;;33.73;18.20;;;;;;;1.50;76.71;98413.36;2268414;78;20892;-79
2022/11/19 06:06:53;;;;;;;26.40;16.93;;;;;;;0.30;73.24;98422.31;2268183;78;20908;-80
2022/11/19 06:09:54;;;;;;;31.83;18.27;;;;;;;-0.67;72.75;98432.67;2267577;78;21327;-80
2022/11/19 06:12:54;;;;;;;32.57;20.20;;;;;;;-1.27;73.47;98438.14;2267777;78;20941;-81
2022/11/19 06:15:54;;;;;;;37.20;20.70;;;;;;;-1.72;74.22;98447.75;2268684;78;20927;-80
2022/11/19 06:18:55;;;;;;;38.37;21.80;;;;;;;-2.07;74.98;98453.49;2268624;78;20915;-80
2022/11/19 06:21:55;;;;;;;34.30;20.20;;;;;;;-2.33;75.66;98457.17;2268078;78;20936;-79
2022/11/19 06:24:56;;;;;;;35.87;20.27;;;;;;;-2.51;76.30;98459.98;2267644;78;20967;-79
2022/11/19 06:27:56;;;;;;;36.30;21.90;;;;;;;-2.63;76.43;98458.86;2267953;78;20959;-81
2022/11/19 06:30:56;;;;;;;34.90;19.83;;;;;;;-2.72;76.83;98460.49;2269005;78;20900;-81
2022/11/19 06:33:58;;;;;;;46.13;24.00;;;;;;;-2.79;76.96;98460.94;2268601;78;21054;-80
2022/11/19 06:36:59;;;;;;;57.17;30.00;;;;;;;-2.81;77.92;98468.91;2268437;78;21248;-80
2022/11/19 06:39:59;;;;;;;53.87;29.97;;;;;;;-2.87;78.18;98468.55;2267769;78;20987;-81
2022/11/19 06:43:00;;;;;;;50.77;28.87;;;;;;;-2.87;78.70;98469.84;2268189;78;20920;-81
2022/11/19 06:46:00;;;;;;;56.10;27.57;;;;;;;-2.87;78.87;98474.06;2268065;78;21316;-81
2022/11/19 06:49:02;;;;;;;48.40;27.17;;;;;;;-2.92;78.99;98476.34;2267811;78;21006;-81
2022/11/19 06:52:01;;;;;;;50.00;26.60;;;;;;;-2.95;79.16;98480.00;2267895;78;20952;-80
2022/11/19 06:55:01;;;;;;;51.97;26.93;;;;;;;-2.96;79.35;98487.18;2267271;78;21314;-82
2022/11/19 06:58:02;;;;;;;47.17;25.57;;;;;;;-2.96;79.48;98493.56;2268071;78;20920;-81
2022/11/19 07:01:02;;;;;;;51.43;26.93;;;;;;;-2.91;79.69;98502.38;2267827;78;20955;-81
2022/11/19 07:04:03;;;;;;;46.30;27.57;;;;;;;-2.85;79.73;98501.45;2268203;78;20876;-81
2022/11/19 07:07:03;;;;;;;64.17;30.77;;;;;;;-2.81;79.64;98505.95;2266984;79;20963;-81
2022/11/19 07:10:03;;;;;;;41.87;27.07;;;;;;;-2.78;79.78;98511.62;2268115;78;20993;-80
2022/11/19 07:13:04;;;;;;;36.50;21.33;;;;;;;-2.74;79.67;98517.01;2268319;78;20896;-81
2022/11/19 07:16:04;;;;;;;38.50;21.73;;;;;;;-2.69;79.84;98518.16;2267353;78;20920;-81
2022/11/19 07:19:05;;;;;;;32.07;20.67;;;;;;;-2.62;79.76;98517.72;2267691;78;20948;-81
2022/11/19 07:22:05;;;;;;;33.97;21.57;;;;;;;-2.59;79.55;98517.92;2268592;78;21292;-81
2022/11/19 07:25:05;;;;;;;34.63;22.33;;;;;;;-2.55;79.17;98520.66;2268964;78;21268;-81
2022/11/19 07:28:06;;;;;;;37.00;20.33;;;;;;;-2.58;79.24;98527.35;2268955;78;21298;-81
2022/11/19 07:31:06;;;;;;;59.30;22.47;;;;;;;-2.59;79.41;98516.65;2267926;78;20912;-77
2022/11/19 07:34:07;;;;;;;37.57;19.97;;;;;;;-2.48;79.60;98518.94;2266675;78;20904;-80
2022/11/19 07:37:07;;;;;;;44.73;22.50;;;;;;;-2.39;79.41;98515.23;2267786;78;20919;-80
2022/11/19 07:40:09;;;;;;;37.37;22.07;;;;;;;-2.31;79.22;98522.05;2270420;78;21371;-81
2022/11/19 07:43:08;;;;;;;49.77;25.53;;;;;;;-2.24;79.02;98521.60;2271917;78;21319;-80
2022/11/19 07:46:08;;;;;;;55.30;27.33;;;;;;;-2.29;78.62;98520.06;2272211;78;21252;-80
2022/11/19 07:49:09;;;;;;;52.47;27.27;;;;;;;-2.22;78.75;98520.02;2271954;78;20982;-79
2022/11/19 07:52:09;;;;;;;42.97;23.07;;;;;;;-2.15;78.78;98528.91;2271069;78;20911;-80
2022/11/19 07:55:10;;;;;;;36.70;23.10;;;;;;;-2.02;78.74;98531.35;2271169;78;20971;-79
2022/11/19 07:58:10;;;;;;;36.67;22.03;;;;;;;-1.90;78.44;98535.87;2271372;78;21287;-79
2022/11/19 08:01:10;;;;;;;40.60;24.03;;;;;;;-1.78;78.18;98525.03;2271411;78;20950;-80
2022/11/19 08:04:11;;;;;;;44.93;24.97;;;;;;;-1.65;77.57;98526.61;2271714;78;20946;-80
2022/11/19 08:07:11;;;;;;;43.80;26.17;;;;;;;-1.59;77.12;98530.78;2271612;78;20912;-79
2022/11/19 08:10:12;;;;;;;45.40;26.60;;;;;;;-1.54;76.86;98524.22;2271886;78;20975;-79
2022/11/19 08:13:12;;;;;;;55.10;28.10;;;;;;;-1.38;76.87;98528.48;2272419;78;20908;-79
2022/11/19 08:18:10;;;;;;;64.67;35.17;;;;;;;-1.31;76.31;98532.73;2271689;78;20927;-79
2022/11/19 08:19:13;;;;;;;54.07;31.00;;;;;;;-1.26;75.99;98539.38;2271087;78;20911;-81
2022/11/19 08:22:13;;;;;;;76.20;35.87;;;;;;;-1.32;75.67;98527.53;2271492;78;21316;-80
2022/11/19 08:25:14;;;;;;;66.10;37.77;;;;;;;-1.43;75.62;98534.64;2271769;78;20932;-79
2022/11/19 08:28:14;;;;;;;68.53;35.70;;;;;;;-1.58;75.93;98522.70;2271757;78;20923;-81
2022/11/19 08:31:15;;;;;;;69.90;37.23;;;;;;;-1.67;76.08;98532.92;2272386;78;20946;-80
2022/11/19 08:34:15;;;;;;;59.87;33.77;;;;;;;-1.81;76.53;98533.81;2272637;78;20966;-82
2022/11/19 08:37:15;;;;;;;55.67;31.77;;;;;;;-1.83;76.47;98540.92;2272247;78;20912;-82
2022/11/19 08:40:18;;;;;;;56.90;32.43;;;;;;;-1.75;76.56;98544.78;2239978;78;20936;-80
2022/11/19 08:43:18;;;;;;;67.47;37.03;;;;;;;-1.65;76.28;98545.80;2267367;78;20983;-79
2022/11/19 08:46:19;;;;;;;59.40;34.63;;;;;;;-1.61;76.12;98537.09;2269156;78;21371;-81
2022/11/19 08:49:19;;;;;;;58.43;36.03;;;;;;;-1.49;76.21;98542.39;2267714;78;21010;-81
2022/11/19 08:52:19;;;;;;;48.73;29.13;;;;;;;-1.36;76.44;98548.64;2266373;78;20943;-82
2022/11/19 08:55:20;;;;;;;40.93;25.63;;;;;;;-1.32;75.73;98542.48;2267363;78;20924;-81
2022/11/19 08:58:20;;;;;;;40.23;25.03;;;;;;;-1.30;75.83;98542.17;2267646;78;20900;-81
2022/11/19 09:01:21;;;;;;;37.97;22.27;;;;;;;-1.30;75.16;98545.13;2267572;78;20967;-80
2022/11/19 09:04:21;;;;;;;27.13;18.97;;;;;;;-1.14;75.00;98546.42;2267431;78;20916;-80
2022/11/19 09:07:22;;;;;;;32.87;19.67;;;;;;;-1.08;72.99;98548.02;2267057;78;20918;-81
2022/11/19 09:10:22;;;;;;;29.37;19.17;;;;;;;-1.11;72.46;98549.14;2266821;78;21011;-79
2022/11/19 09:13:22;;;;;;;37.10;21.20;;;;;;;-0.99;72.44;98545.05;2267843;78;20921;-79
2022/11/19 09:16:23;;;;;;;40.70;18.47;;;;;;;-0.85;72.57;98540.27;2268353;78;20927;-80
2022/11/19 09:19:23;;;;;;;27.30;17.63;;;;;;;-0.67;72.67;98542.49;2267830;78;20983;-79
2022/11/19 09:22:24;;;;;;;25.67;16.67;;;;;;;-0.48;70.91;98543.02;2267974;78;21268;-81
2022/11/19 09:25:24;;;;;;;27.87;16.37;;;;;;;-0.20;70.50;98545.25;2268794;78;20920;-79
2022/11/19 09:28:24;;;;;;;24.10;17.20;;;;;;;0.06;68.85;98552.08;2268369;78;21037;-80
2022/11/19 09:31:25;;;;;;;26.27;16.73;;;;;;;0.29;69.30;98558.78;2268900;78;21510;-80
2022/11/19 09:34:25;;;;;;;16.13;12.87;;;;;;;0.52;67.23;98564.99;2268224;78;20959;-79
2022/11/19 09:37:30;;;;;;;15.60;11.27;;;;;;;0.46;64.78;98561.26;2268974;78;20888;-80
2022/11/19 09:40:26;;;;;;;15.17;11.23;;;;;;;0.33;63.94;98557.23;2268814;78;20987;-79
2022/11/19 09:43:26;;;;;;;17.03;11.47;;;;;;;0.31;64.31;98562.30;2268248;78;20970;-80
2022/11/19 09:46:27;;;;;;;14.77;11.70;;;;;;;0.07;62.41;98571.80;2267601;78;20876;-80
2022/11/19 09:49:28;;;;;;;19.20;13.83;;;;;;;-0.06;64.32;98566.45;2266974;78;20945;-80
2022/11/19 09:52:28;;;;;;;22.10;14.30;;;;;;;-0.05;64.97;98566.52;2268579;78;20911;-80
2022/11/19 09:55:28;;;;;;;18.00;12.87;;;;;;;-0.09;64.49;98563.73;2268374;78;20907;-79
2022/11/19 09:58:28;;;;;;;17.77;12.97;;;;;;;-0.18;64.63;98559.44;2268094;78;20892;-80
2022/11/19 10:01:29;;;;;;;22.37;13.30;;;;;;;-0.24;64.29;98566.83;2268517;78;20904;-80
2022/11/19 10:04:29;;;;;;;18.20;12.07;;;;;;;-0.35;64.33;98571.03;2268458;78;20920;-80
2022/11/19 10:07:30;;;;;;;17.83;12.80;;;;;;;-0.38;64.36;98567.03;2267405;78;21532;-81
2022/11/19 10:10:32;;;;;;;19.60;13.03;;;;;;;-0.20;64.04;98561.92;2266875;78;20948;-81
2022/11/19 10:13:30;;;;;;;32.80;14.63;;;;;;;-0.01;63.15;98563.30;2267246;78;20895;-79
2022/11/19 10:16:31;;;;;;;21.63;14.93;;;;;;;0.29;63.98;98554.05;2267067;78;20955;-81
2022/11/19 10:19:31;;;;;;;18.33;13.53;;;;;;;0.57;62.64;98553.24;2269206;78;21280;-81
2022/11/19 10:22:32;;;;;;;16.00;12.70;;;;;;;0.46;61.76;98555.72;2267189;78;20928;-81
2022/11/19 10:25:32;;;;;;;14.57;11.73;;;;;;;0.35;62.66;98554.74;2267161;78;20959;-81
2022/11/19 10:28:32;;;;;;;15.37;11.80;;;;;;;0.28;60.95;98559.99;2267699;78;21374;-80
2022/11/19 10:31:33;;;;;;;15.27;12.43;;;;;;;-0.03;60.64;98564.03;2267348;78;20967;-81
2022/11/19 10:34:33;;;;;;;17.50;11.80;;;;;;;-0.30;61.84;98565.25;2268058;78;20901;-81
2022/11/19 10:37:34;;;;;;;14.97;10.73;;;;;;;-0.60;62.08;98568.44;2268740;78;20907;-81
2022/11/19 10:40:34;;;;;;;16.53;11.03;;;;;;;-0.82;62.80;98560.05;2270328;78;21022;-81
2022/11/19 10:43:35;;;;;;;16.27;11.70;;;;;;;-0.95;62.63;98564.91;2271981;78;21372;-80
2022/11/19 10:46:35;;;;;;;15.83;11.13;;;;;;;-1.05;62.87;98568.67;2271719;78;20922;-81
2022/11/19 10:49:35;;;;;;;15.90;9.63;;;;;;;-1.17;63.00;98573.55;2272166;78;20958;-81
2022/11/19 10:52:36;;;;;;;16.83;11.33;;;;;;;-1.31;62.74;98578.82;2272042;78;21575;-80
2022/11/19 10:55:36;;;;;;;19.03;13.37;;;;;;;-1.32;63.65;98579.62;2271411;78;20935;-78
2022/11/19 10:58:36;;;;;;;17.07;12.03;;;;;;;-1.27;63.83;98584.11;2271401;78;20956;-81
2022/11/19 11:01:37;;;;;;;20.03;12.87;;;;;;;-1.21;63.13;98576.34;2271176;78;21323;-81
2022/11/19 11:04:37;;;;;;;18.77;12.87;;;;;;;-1.15;63.63;98577.08;2271571;78;20919;-81
2022/11/19 11:07:38;;;;;;;21.97;14.10;;;;;;;-1.18;63.07;98571.79;2271640;78;20915;-81
2022/11/19 11:10:41;;;;;;;21.43;13.57;;;;;;;-1.18;63.07;98571.79;2271250;78;21358;-83
2022/11/19 11:16:58;;;;;;;35.10;18.97;;;;;;;2.32;83.36;98550.06;2272043;78;20943;-80
2022/11/19 11:19:58;;;;;;;25.57;14.70;;;;;;;2.40;60.74;98562.83;2271054;78;20979;-81
2022/11/19 11:22:58;;;;;;;29.90;15.80;;;;;;;1.15;58.87;98566.17;2271207;78;20919;-81
2022/11/19 11:25:58;;;;;;;39.30;17.33;;;;;;;0.46;60.24;98572.41;2270460;78;20912;-81
2022/11/19 11:28:59;;;;;;;128.30;20.27;;;;;;;0.02;59.40;98577.12;2270570;78;21329;-80
2022/11/19 11:32:00;;;;;;;34.73;18.33;;;;;;;-0.26;60.61;98572.28;2269777;78;20955;-80
2022/11/19 11:35:00;;;;;;;28.53;16.37;;;;;;;-0.31;60.42;98566.93;2270472;78;20888;-80
2022/11/19 11:38:00;;;;;;;22.10;14.23;;;;;;;-0.37;60.58;98572.64;2270055;78;21340;-80
2022/11/19 11:41:01;;;;;;;20.83;14.03;;;;;;;-0.38;60.44;98569.99;2270106;78;21043;-80
2022/11/19 11:44:01;;;;;;;25.83;15.67;;;;;;;-0.48;59.54;98566.49;2270826;78;20907;-81
2022/11/19 11:47:01;;;;;;;22.47;12.70;;;;;;;-0.55;59.91;98567.87;2271957;78;21691;-80
2022/11/19 11:50:02;;;;;;;24.80;14.10;;;;;;;-0.66;60.53;98560.91;2272045;78;21378;-80
2022/11/19 11:53:02;;;;;;;26.60;14.70;;;;;;;-0.74;61.50;98562.61;2272186;78;20903;-81
2022/11/19 11:56:03;;;;;;;23.00;14.37;;;;;;;-0.75;61.74;98560.45;2272665;78;20919;-79
2022/11/19 11:59:03;;;;;;;22.73;14.27;;;;;;;-0.90;60.87;98564.75;2272627;78;20907;-80
2022/11/19 12:02:04;;;;;;;22.20;11.97;;;;;;;-0.99;61.19;98566.83;2272613;78;20951;-80
2022/11/19 12:05:04;;;;;;;23.13;13.40;;;;;;;-0.97;61.70;98560.98;2272373;78;20911;-81
2022/11/19 12:08:04;;;;;;;16.17;10.63;;;;;;;-0.91;59.97;98561.70;2272310;78;21299;-80
2022/11/19 12:11:05;;;;;;;17.33;11.93;;;;;;;-0.84;59.17;98559.09;2271598;78;21005;-79
2022/11/19 12:14:05;;;;;;;17.10;10.67;;;;;;;-0.79;59.67;98562.38;2271917;78;20931;-79
2022/11/19 12:17:05;;;;;;;17.70;9.70;;;;;;;-0.79;59.27;98562.38;2271234;78;21347;-80
2022/11/19 12:20:06;;;;;;;10.90;8.80;;;;;;;-0.71;60.14;98557.64;2271283;78;20939;-80
2022/11/19 12:23:06;;;;;;;10.43;8.63;;;;;;;-0.59;59.68;98560.83;2271028;78;20884;-79
2022/11/19 12:26:11;;;;;;;11.80;9.20;;;;;;;-0.51;58.21;98565.05;2271252;78;21341;-80
2022/11/19 12:29:07;;;;;;;11.60;8.80;;;;;;;-0.49;59.31;98566.02;2271272;78;20990;-80
2022/11/19 12:32:07;;;;;;;14.30;8.97;;;;;;;-0.45;58.72;98570.09;2270783;78;20965;-80
2022/11/19 12:35:08;;;;;;;39.10;10.23;;;;;;;-0.40;59.47;98572.88;2271112;78;20927;-80
2022/11/19 12:38:08;;;;;;;14.93;9.07;;;;;;;-0.26;59.41;98576.14;2271218;78;20923;-80
2022/11/19 12:41:09;;;;;;;20.97;9.63;;;;;;;-0.12;59.31;98569.59;2271442;78;20994;-81
2022/11/19 12:44:09;;;;;;;24.40;10.47;;;;;;;-0.06;58.59;98572.45;2272862;78;20923;-80
2022/11/19 12:47:10;;;;;;;14.70;10.00;;;;;;;-0.06;58.74;98564.77;2273768;78;20915;-80
2022/11/19 12:50:12;;;;;;;13.30;9.60;;;;;;;-0.08;58.76;98563.81;2273232;78;20911;-80
2022/11/19 12:53:10;;;;;;;12.33;9.57;;;;;;;-0.14;58.54;98572.48;2273536;78;20899;-80
2022/11/19 12:56:11;;;;;;;13.90;9.67;;;;;;;-0.19;58.27;98571.38;2273017;78;20951;-80
2022/11/19 12:59:11;;;;;;;15.77;11.00;;;;;;;-0.16;59.48;98570.25;2272640;78;20927;-81
2022/11/19 13:02:12;;;;;;;22.13;11.57;;;;;;;-0.13;58.29;98569.52;2272366;78;20927;-79
2022/11/19 13:05:12;;;;;;;19.23;10.60;;;;;;;-0.12;58.39;98566.15;2272469;78;20915;-79
2022/11/19 13:08:12;;;;;;;15.57;10.27;;;;;;;-0.16;58.60;98576.66;2272091;78;21327;-80
2022/11/19 13:11:18;;;;;;;16.03;9.27;;;;;;;-0.11;58.95;98576.89;2271634;78;20975;-81
2022/11/19 13:14:19;;;;;;;16.67;9.80;;;;;;;-0.18;57.52;98583.81;2271584;78;20923;-80
2022/11/19 13:17:19;;;;;;;16.67;9.87;;;;;;;-0.18;57.52;98583.81;2271422;78;20955;-79
2022/11/19 13:20:20;;;;;;;15.60;9.70;;;;;;;-0.19;58.28;98581.64;2271550;78;20904;-79
2022/11/19 13:23:20;;;;;;;40.13;10.30;;;;;;;-0.18;57.51;98581.23;2271608;78;20916;-80
2022/11/19 13:26:21;;;;;;;17.00;9.27;;;;;;;-0.32;56.36;98586.97;2272181;78;20888;-79
2022/11/19 13:29:21;;;;;;;22.97;10.73;;;;;;;-0.34;57.53;98596.27;2272585;78;20903;-79
2022/11/19 13:32:21;;;;;;;12.80;8.30;;;;;;;-0.28;57.91;98592.73;2272994;78;20884;-79
2022/11/19 13:35:22;;;;;;;14.67;8.33;;;;;;;-0.30;56.41;98592.17;2272723;78;21304;-79
2022/11/19 13:38:22;;;;;;;18.87;9.20;;;;;;;-0.36;56.72;98601.33;2273706;78;20927;-79
2022/11/19 13:41:24;;;;;;;24.43;10.23;;;;;;;-0.36;57.06;98601.72;2273810;78;20979;-80
2022/11/19 13:44:43;;;;;;;14.40;9.00;;;;;;;-0.42;56.69;98601.02;2273728;78;21236;-77
2022/11/19 13:47:43;;;;;;;19.43;9.40;;;;;;;-0.52;56.16;98605.59;2272914;78;21311;-78
2022/11/19 13:50:43;;;;;;;19.07;9.80;;;;;;;-0.55;57.32;98613.13;2273589;78;20947;-79
2022/11/19 13:53:44;;;;;;;15.87;9.33;;;;;;;-0.63;56.08;98616.98;2273620;78;20935;-79
2022/11/19 13:56:44;;;;;;;17.53;9.70;;;;;;;-0.71;56.47;98611.06;2273492;78;21279;-80
2022/11/19 13:59:44;;;;;;;25.27;10.40;;;;;;;-0.75;56.47;98609.14;2273604;78;20919;-79
2022/11/19 14:02:47;;;;;;;15.40;9.70;;;;;;;-0.78;57.01;98620.52;2273115;78;20981;-78
2022/11/19 14:05:47;;;;;;;19.47;9.67;;;;;;;-0.78;57.38;98622.20;2246067;78;21315;-81
2022/11/19 14:08:48;;;;;;;31.47;16.93;;;;;;;-0.78;56.37;98614.11;2273520;78;20927;-79